PAKT/KTN METAR and TAF weather

Enter ICAO airport designator
Station Type Date Time Source
PAKT METAR 2019/02/18 03:53 UTC NOAA

PAKT 180353Z 29004KT 10SM FEW075 M02/M08 A3047 RMK AO2 SLP319 T10171083


Station Type Date Time Source
PAKT Decoded METAR 2019/02/18 03:53 UTC NOAA

KETCHIKAN INTERNATIONAL AIRPORT , AK, United States (PAKT) 55-21N 131-43W 25M
Feb 17, 2019 - 10:53 PM EST / 2019.02.18 0353 UTC
Wind: from the WNW (290 degrees) at 5 MPH (4 KT):0
Visibility: 10 mile(s):0
Sky conditions: mostly clear
Temperature: 28.9 F (-1.7 C)
Windchill: 23 F (-5 C):1
Dew Point: 17.1 F (-8.3 C)
Relative Humidity: 60%
Pressure (altimeter): 30.47 in. Hg (1031 hPa)
ob: PAKT 180353Z 29004KT 10SM FEW075 M02/M08 A3047 RMK AO2 SLP319 T10171083
cycle: 4

Station Type Date Time Source
PAKT TAF 2019/02/17 18:42 UTC NOAA

TAF PAKT 171739Z 1718/1818 31007KT P6SM SKC
FM180500 VRB05KT P6SM SCT060 BKN150
FM181300 16005KT P6SM BKN060 OVC100
AMD LTD TO CLD VIS AND WIND 1806/1815


Example: see airport list